createdAt,value
2022-08-12T00:02:45.039Z,101636.72
2022-08-12T00:05:31.728Z,101646.88
2022-08-12T00:08:16.869Z,101653.34
2022-08-12T00:11:14.231Z,101643.50
2022-08-12T00:14:00.079Z,101642.47
2022-08-12T00:16:47.127Z,101640.72
2022-08-12T00:19:34.309Z,101644.97
2022-08-12T00:22:20.882Z,101639.69
2022-08-12T00:25:06.039Z,101641.38
2022-08-12T00:27:51.745Z,101643.28
2022-08-12T00:30:37.809Z,101642.56
2022-08-12T00:33:23.061Z,101643.28
2022-08-12T00:36:34.938Z,101649.31
2022-08-12T00:39:18.509Z,101640.22
2022-08-12T00:42:04.951Z,101642.44
2022-08-12T00:44:32.709Z,101636.72
2022-08-12T00:47:02.472Z,101644.84
2022-08-12T00:49:31.919Z,101653.13
2022-08-12T00:52:09.805Z,101657.19
2022-08-12T00:54:40.881Z,101645.44
2022-08-12T00:57:11.282Z,101651.69
2022-08-12T00:59:44.435Z,101646.50
2022-08-12T01:02:16.220Z,101641.06
2022-08-12T01:05:02.536Z,101648.66
2022-08-12T01:07:51.207Z,101649.91
2022-08-12T01:10:36.494Z,101640.25
2022-08-12T01:13:18.579Z,101643.16
2022-08-12T01:15:49.589Z,101646.59
2022-08-12T01:18:18.925Z,101646.31
2022-08-12T01:20:55.846Z,101650.38
2022-08-12T01:23:50.339Z,101645.22
2022-08-12T01:26:21.239Z,101646.25
2022-08-12T01:28:51.161Z,101652.19
2022-08-12T01:31:20.849Z,101644.25
2022-08-12T01:33:57.293Z,101640.75
2022-08-12T01:36:26.970Z,101645.22
2022-08-12T01:38:57.461Z,101640.19
2022-08-12T01:41:27.471Z,101647.41
2022-08-12T01:43:58.715Z,101643.22
2022-08-12T01:46:40.569Z,101641.16
2022-08-12T01:49:21.796Z,101653.16
2022-08-12T01:52:19.898Z,101645.78
2022-08-12T01:54:46.494Z,101648.31
2022-08-12T01:57:58.045Z,101650.56
2022-08-12T02:00:12.248Z,101658.31
2022-08-12T02:02:43.371Z,101650.97
2022-08-12T02:05:36.562Z,101648.31
2022-08-12T02:09:00.218Z,101656.03
2022-08-12T02:11:31.794Z,101649.97
2022-08-12T02:14:28.026Z,101648.66
2022-08-12T02:17:05.329Z,101648.13
2022-08-12T02:19:48.752Z,101642.63
2022-08-12T02:22:28.573Z,101640.25
2022-08-12T02:25:00.463Z,101634.31
2022-08-12T02:27:30.259Z,101633.16
2022-08-12T02:29:59.594Z,101642.63
2022-08-12T02:32:27.777Z,101644.25
2022-08-12T02:34:57.516Z,101632.88
2022-08-12T02:37:26.346Z,101639.00
2022-08-12T02:39:55.035Z,101638.28
2022-08-12T02:42:23.848Z,101636.19
2022-08-12T02:44:53.224Z,101643.66
2022-08-12T02:47:58.893Z,101639.78
2022-08-12T02:50:12.132Z,101632.72
2022-08-12T02:52:40.181Z,101640.44
2022-08-12T02:55:28.882Z,101633.06
2022-08-12T02:58:06.860Z,101635.81
2022-08-12T03:00:37.531Z,101636.91
2022-08-12T03:03:10.102Z,101638.34
2022-08-12T03:05:45.576Z,101640.03
2022-08-12T03:08:23.431Z,101636.09
2022-08-12T03:11:06.094Z,101641.22
2022-08-12T03:13:42.572Z,101637.13
2022-08-12T03:16:10.762Z,101636.78
2022-08-12T03:18:45.757Z,101644.81
2022-08-12T03:21:52.799Z,101645.28
2022-08-12T03:24:06.758Z,101648.28
2022-08-12T03:26:36.194Z,101639.22
2022-08-12T03:29:06.697Z,101641.50
2022-08-12T03:31:35.009Z,101646.28
2022-08-12T03:34:08.023Z,101637.00
2022-08-12T03:36:37.111Z,101644.84
2022-08-12T03:39:35.628Z,101643.13
2022-08-12T03:42:17.121Z,101650.72
2022-08-12T03:45:11.998Z,101645.59
2022-08-12T03:48:01.311Z,101654.22
2022-08-12T03:50:49.270Z,101651.84
2022-08-12T03:53:40.778Z,101658.47
2022-08-12T03:56:26.333Z,101656.34
2022-08-12T03:59:13.448Z,101650.88
2022-08-12T04:01:41.610Z,101655.41
2022-08-12T04:04:11.592Z,101652.97
2022-08-12T04:06:45.904Z,101657.75
2022-08-12T04:09:16.164Z,101659.28
2022-08-12T04:12:03.249Z,101657.66
2022-08-12T04:14:31.944Z,101662.69
2022-08-12T04:16:59.951Z,101660.88
2022-08-12T04:19:28.442Z,101665.19
2022-08-12T04:22:02.097Z,101667.84
2022-08-12T04:24:31.291Z,101657.41
2022-08-12T04:26:59.164Z,101654.56
2022-08-12T04:30:16.617Z,101656.47
2022-08-12T04:32:15.753Z,101662.97
2022-08-12T04:34:43.978Z,101661.31
2022-08-12T04:37:13.536Z,101658.38
2022-08-12T04:39:42.136Z,101664.53
2022-08-12T04:42:10.100Z,101667.28
2022-08-12T04:44:37.965Z,101658.91
2022-08-12T04:47:06.014Z,101664.47
2022-08-12T04:49:36.087Z,101662.16
2022-08-12T04:52:04.905Z,101664.28
2022-08-12T04:54:34.584Z,101655.28
2022-08-12T04:57:05.019Z,101664.47
2022-08-12T04:59:47.850Z,101664.69
2022-08-12T05:02:21.370Z,101665.97
2022-08-12T05:04:51.051Z,101661.81
2022-08-12T05:07:18.981Z,101666.44
2022-08-12T05:10:00.586Z,101665.28
2022-08-12T05:12:34.369Z,101666.50
2022-08-12T05:15:02.236Z,101664.72
2022-08-12T05:17:30.284Z,101667.16
2022-08-12T05:19:58.229Z,101668.63
2022-08-12T05:22:26.625Z,101670.47
2022-08-12T05:24:55.977Z,101664.00
2022-08-12T05:27:23.885Z,101661.28
2022-08-12T05:30:05.488Z,101671.25
2022-08-12T05:32:37.193Z,101668.91
2022-08-12T05:35:08.065Z,101668.44
2022-08-12T05:37:36.384Z,101673.47
2022-08-12T05:40:11.223Z,101665.38
2022-08-12T05:42:39.539Z,101677.16
2022-08-12T05:45:08.722Z,101672.91
2022-08-12T05:47:53.509Z,101669.72
2022-08-12T05:50:22.162Z,101679.00
2022-08-12T05:52:49.916Z,101681.59
2022-08-12T05:55:24.304Z,101683.88
2022-08-12T05:57:55.315Z,101681.84
2022-08-12T06:00:25.500Z,101676.50
2022-08-12T06:02:57.093Z,101685.00
2022-08-12T06:05:24.976Z,101687.34
2022-08-12T06:08:01.285Z,101678.22
2022-08-12T06:10:33.179Z,101685.66
2022-08-12T06:13:02.587Z,101689.44
2022-08-12T06:15:30.936Z,101684.63
2022-08-12T06:18:11.509Z,101689.06
2022-08-12T06:20:43.875Z,101689.19
2022-08-12T06:23:11.887Z,101686.19
2022-08-12T06:25:42.068Z,101688.56
2022-08-12T06:28:15.569Z,101695.25
2022-08-12T06:30:43.405Z,101695.28
2022-08-12T06:33:22.382Z,101694.31
2022-08-12T06:35:52.011Z,101686.66
2022-08-12T06:38:23.070Z,101686.66
2022-08-12T06:41:12.275Z,101695.19
2022-08-12T06:44:04.666Z,101686.03
2022-08-12T06:46:30.060Z,101684.75
2022-08-12T06:48:58.845Z,101688.63
2022-08-12T06:51:28.566Z,101685.50
2022-08-12T06:53:56.911Z,101692.28
2022-08-12T06:56:45.839Z,101693.38
2022-08-12T06:59:14.646Z,101689.81
2022-08-12T07:01:51.053Z,101683.28
2022-08-12T07:07:08.846Z,101687.19
2022-08-12T07:09:58.070Z,101687.38
2022-08-12T07:12:28.049Z,101685.00
2022-08-12T07:14:57.273Z,101679.59
2022-08-12T07:17:31.583Z,101686.16
2022-08-12T07:20:04.137Z,101684.19
2022-08-12T07:22:33.108Z,101688.13
2022-08-12T07:25:18.597Z,101683.25
2022-08-12T07:27:50.409Z,101691.09
2022-08-12T07:30:18.462Z,101684.66
2022-08-12T07:32:51.507Z,101695.88
2022-08-12T07:35:20.307Z,101704.38
2022-08-12T07:37:50.469Z,101697.00
2022-08-12T07:40:18.887Z,101691.41
2022-08-12T07:42:48.294Z,101693.16
2022-08-12T07:45:16.793Z,101693.25
2022-08-12T07:47:44.815Z,101691.19
2022-08-12T07:50:13.456Z,101695.16
2022-08-12T07:52:43.171Z,101689.06
2022-08-12T07:55:12.244Z,101696.56
2022-08-12T07:57:57.807Z,101691.50
2022-08-12T08:00:26.890Z,101689.97
2022-08-12T08:02:55.127Z,101691.78
2022-08-12T08:05:24.972Z,101690.63
2022-08-12T08:07:55.924Z,101686.16
2022-08-12T08:10:23.733Z,101690.38
2022-08-12T08:12:54.842Z,101686.53
2022-08-12T08:15:44.474Z,101689.66
2022-08-12T08:18:25.861Z,101681.13
2022-08-12T08:20:55.955Z,101679.13
2022-08-12T08:23:46.776Z,101680.97
2022-08-12T08:26:24.801Z,101679.94
2022-08-12T08:28:54.318Z,101679.16
2022-08-12T08:31:22.131Z,101679.22
2022-08-12T08:34:09.652Z,101674.63
2022-08-12T08:36:39.291Z,101680.84
2022-08-12T08:39:07.951Z,101683.03
2022-08-12T08:42:17.369Z,101679.34
2022-08-12T08:44:42.968Z,101683.19
2022-08-12T08:47:12.751Z,101678.97
2022-08-12T08:49:40.958Z,101675.31
2022-08-12T08:52:10.480Z,101668.56
2022-08-12T08:54:38.915Z,101678.81
2022-08-12T08:57:09.006Z,101671.13
2022-08-12T08:59:36.994Z,101664.06
2022-08-12T09:02:07.740Z,101667.00
2022-08-12T09:07:51.304Z,101673.53
2022-08-12T09:13:23.564Z,101670.69
2022-08-12T09:15:57.729Z,101665.28
2022-08-12T09:18:33.247Z,101664.41
2022-08-12T09:21:06.387Z,101655.84
2022-08-12T09:24:00.751Z,101661.59
2022-08-12T09:26:28.143Z,101658.97
2022-08-12T09:28:56.671Z,101661.22
2022-08-12T09:32:03.887Z,101669.56
2022-08-12T09:34:25.820Z,101661.84
2022-08-12T09:37:02.940Z,101659.13
2022-08-12T09:40:05.845Z,101662.16
2022-08-12T09:43:15.099Z,101662.31
2022-08-12T09:46:11.633Z,101646.09
2022-08-12T09:48:36.010Z,101645.00
2022-08-12T09:51:11.005Z,101645.09
2022-08-12T09:54:09.006Z,101632.72
2022-08-12T09:57:00.129Z,101627.31
2022-08-12T10:00:17.784Z,101632.94
2022-08-12T10:02:41.927Z,101630.06
2022-08-12T10:05:01.844Z,101622.31
2022-08-12T10:07:39.471Z,101619.59
2022-08-12T10:10:24.507Z,101622.38
2022-08-12T10:13:34.977Z,101620.06
2022-08-12T10:16:04.642Z,101611.03
2022-08-12T10:18:35.601Z,101606.84
2022-08-12T10:21:08.687Z,101598.41
2022-08-12T10:23:40.078Z,101596.97
2022-08-12T10:26:37.054Z,101593.22
2022-08-12T10:30:37.197Z,101594.38
2022-08-12T10:32:45.568Z,101590.19
2022-08-12T10:35:09.716Z,101592.34
2022-08-12T10:38:34.384Z,101589.81
2022-08-12T10:40:32.276Z,101590.81
2022-08-12T10:43:18.679Z,101585.94
2022-08-12T10:45:49.388Z,101585.28
2022-08-12T10:48:33.374Z,101576.91
2022-08-12T10:51:51.550Z,101575.34
2022-08-12T10:54:00.683Z,101566.53
2022-08-12T10:56:34.446Z,101576.41
2022-08-12T10:59:05.139Z,101569.34
2022-08-12T11:04:17.210Z,101561.38
2022-08-12T11:04:39.657Z,101561.22
2022-08-12T11:08:36.832Z,101560.13
2022-08-12T11:10:01.868Z,101562.94
2022-08-12T11:12:56.299Z,101562.72
2022-08-12T11:15:33.187Z,101557.50
2022-08-12T11:18:17.766Z,101564.25
2022-08-12T11:20:48.388Z,101558.50
2022-08-12T11:23:26.083Z,101558.94
2022-08-12T11:26:08.180Z,101567.31
2022-08-12T11:28:38.761Z,101556.22
2022-08-12T11:31:12.326Z,101544.97
2022-08-12T11:34:05.859Z,101542.22
2022-08-12T11:36:31.643Z,101542.00
2022-08-12T11:39:04.377Z,101537.06
2022-08-12T11:41:34.541Z,101531.56
2022-08-12T11:44:36.201Z,101527.59
2022-08-12T11:46:54.050Z,101528.22
2022-08-12T11:49:31.218Z,101529.88
2022-08-12T11:52:02.078Z,101527.91
2022-08-12T11:54:30.414Z,101519.84
2022-08-12T11:56:59.675Z,101526.91
2022-08-12T12:02:01.092Z,101526.72
2022-08-12T12:02:20.753Z,101527.06
2022-08-12T12:04:52.217Z,101520.88
2022-08-12T12:07:22.470Z,101511.38
2022-08-12T12:09:52.295Z,101518.94
2022-08-12T12:12:22.687Z,101515.41
2022-08-12T12:14:55.058Z,101509.81
2022-08-12T12:17:24.200Z,101514.94
2022-08-12T12:19:53.069Z,101507.81
2022-08-12T12:22:23.432Z,101506.19
2022-08-12T12:24:55.152Z,101505.50
2022-08-12T12:27:39.392Z,101501.06
2022-08-12T12:30:25.641Z,101503.59
2022-08-12T12:32:58.919Z,101506.16
2022-08-12T12:36:19.882Z,101501.50
2022-08-12T12:38:15.924Z,101496.81
2022-08-12T12:40:45.279Z,101492.56
2022-08-12T12:43:14.052Z,101487.00
2022-08-12T12:45:46.372Z,101483.34
2022-08-12T12:48:16.046Z,101495.59
2022-08-12T12:50:51.168Z,101499.78
2022-08-12T12:54:07.278Z,101503.84
2022-08-12T12:56:15.598Z,101497.34
2022-08-12T12:58:44.065Z,101493.13
2022-08-12T13:01:26.820Z,101494.78
2022-08-12T13:04:02.083Z,101494.25
2022-08-12T13:06:32.266Z,101490.19
2022-08-12T13:09:02.359Z,101490.91
2022-08-12T13:11:40.915Z,101481.31
2022-08-12T13:14:28.368Z,101489.72
2022-08-12T13:17:02.638Z,101481.69
2022-08-12T13:19:36.688Z,101484.38
2022-08-12T13:22:21.052Z,101486.50
2022-08-12T13:24:54.532Z,101482.06
2022-08-12T13:27:35.077Z,101488.50
2022-08-12T13:30:06.606Z,101488.75
2022-08-12T13:32:40.862Z,101484.16
2022-08-12T13:35:20.363Z,101469.69
2022-08-12T13:37:59.216Z,101465.66
2022-08-12T13:40:32.784Z,101467.56
2022-08-12T13:43:02.061Z,101469.09
2022-08-12T13:45:31.367Z,101467.00
2022-08-12T13:48:02.327Z,101467.47
2022-08-12T13:50:33.031Z,101473.22
2022-08-12T13:53:23.171Z,101456.28
2022-08-12T13:55:59.446Z,101459.69
2022-08-12T13:58:33.055Z,101462.53
2022-08-12T14:01:08.857Z,101460.88
2022-08-12T14:03:50.629Z,101446.03
2022-08-12T14:06:19.791Z,101452.28
2022-08-12T14:08:49.973Z,101449.22
2022-08-12T14:11:19.300Z,101450.22
2022-08-12T14:14:04.150Z,101454.97
2022-08-12T14:16:49.411Z,101447.22
2022-08-12T14:19:24.288Z,101452.72
2022-08-12T14:21:59.040Z,101438.16
2022-08-12T14:24:35.428Z,101444.56
2022-08-12T14:27:08.721Z,101455.97
2022-08-12T14:30:04.686Z,101443.13
2022-08-12T14:32:34.471Z,101446.66
2022-08-12T14:35:08.997Z,101441.50
2022-08-12T14:37:56.508Z,101441.63
2022-08-12T14:40:28.004Z,101439.38
2022-08-12T14:42:56.852Z,101434.00
2022-08-12T14:45:44.507Z,101431.38
2022-08-12T14:48:15.057Z,101435.53
2022-08-12T14:51:03.053Z,101428.09
2022-08-12T14:59:55.697Z,101414.69
2022-08-12T15:02:20.653Z,101410.25
2022-08-12T15:04:52.301Z,101403.00
2022-08-12T15:07:33.746Z,101406.00
2022-08-12T15:10:10.803Z,101414.94
2022-08-12T15:12:40.863Z,101408.72
2022-08-12T15:15:11.253Z,101408.31
2022-08-12T15:17:39.821Z,101394.28
2022-08-12T15:20:28.701Z,101392.97
2022-08-12T15:22:59.858Z,101406.06
2022-08-12T15:25:27.825Z,101401.00
2022-08-12T15:28:20.424Z,101388.25
2022-08-12T15:30:45.064Z,101389.28
2022-08-12T15:33:15.322Z,101386.38
2022-08-12T15:35:50.466Z,101397.22
2022-08-12T15:38:25.366Z,101386.38
2022-08-12T15:40:55.239Z,101388.22
2022-08-12T15:43:51.247Z,101393.34
2022-08-12T15:46:15.434Z,101395.25
2022-08-12T15:48:47.736Z,101379.34
2022-08-12T15:51:59.418Z,101385.13
2022-08-12T15:54:33.221Z,101383.06
2022-08-12T15:57:07.730Z,101381.94
2022-08-12T16:00:00.541Z,101381.03
2022-08-12T16:02:50.458Z,101372.13
2022-08-12T16:06:12.798Z,101370.41
2022-08-12T16:08:17.066Z,101374.41
2022-08-12T16:10:50.687Z,101373.31
2022-08-12T16:13:32.334Z,101366.75
2022-08-12T16:16:22.733Z,101368.84
2022-08-12T16:19:02.125Z,101380.06
2022-08-12T16:21:51.991Z,101371.16
2022-08-12T16:24:20.756Z,101380.75
2022-08-12T16:26:54.501Z,101387.13
2022-08-12T16:29:53.137Z,101374.31
2022-08-12T16:32:31.134Z,101371.50
2022-08-12T16:35:00.748Z,101375.69
2022-08-12T16:38:24.591Z,101372.84
2022-08-12T16:40:21.867Z,101370.34
2022-08-12T16:43:02.310Z,101367.19
2022-08-12T16:46:05.087Z,101364.78
2022-08-12T16:48:35.320Z,101359.63
2022-08-12T16:51:12.294Z,101359.81
2022-08-12T16:53:44.438Z,101365.38
2022-08-12T16:56:15.267Z,101360.34
2022-08-12T16:58:44.959Z,101362.34
2022-08-12T17:01:14.597Z,101363.09
2022-08-12T17:03:48.845Z,101354.16
2022-08-12T17:06:22.264Z,101347.38
2022-08-12T17:09:08.743Z,101346.97
2022-08-12T17:11:49.209Z,101349.31
2022-08-12T17:14:23.014Z,101342.31
2022-08-12T17:16:52.252Z,101335.81
2022-08-12T17:19:41.743Z,101337.03
2022-08-12T17:22:09.282Z,101330.06
2022-08-12T17:24:43.818Z,101326.78
2022-08-12T17:27:16.192Z,101323.28
2022-08-12T17:30:00.971Z,101323.31
2022-08-12T17:32:33.477Z,101322.47
2022-08-12T17:35:19.321Z,101326.25
2022-08-12T17:37:48.470Z,101327.72
2022-08-12T17:40:35.974Z,101314.50
2022-08-12T17:43:56.345Z,101324.38
2022-08-12T17:46:00.010Z,101327.91
2022-08-12T17:48:38.675Z,101319.72
2022-08-12T17:51:15.455Z,101322.63
2022-08-12T17:54:11.706Z,101322.38
2022-08-12T17:56:37.163Z,101322.03
2022-08-12T17:59:07.599Z,101320.22
2022-08-12T18:01:37.384Z,101317.94
2022-08-12T18:04:22.083Z,101324.81
2022-08-12T18:06:52.239Z,101322.94
2022-08-12T18:09:21.369Z,101327.53
2022-08-12T18:12:08.298Z,101326.03
2022-08-12T18:14:38.282Z,101331.47
2022-08-12T18:17:11.965Z,101336.75
2022-08-12T18:20:05.337Z,101330.44
2022-08-12T18:22:32.758Z,101349.97
2022-08-12T18:25:05.008Z,101335.25
2022-08-12T18:27:43.130Z,101332.41
2022-08-12T18:30:21.016Z,101333.91
2022-08-12T18:33:03.506Z,101333.59
2022-08-12T18:35:47.820Z,101339.16
2022-08-12T18:38:22.503Z,101337.13
2022-08-12T18:41:09.590Z,101336.66
2022-08-12T18:43:57.692Z,101348.00
2022-08-12T18:46:31.888Z,101354.84
2022-08-12T18:49:17.995Z,101360.69
2022-08-12T18:51:55.361Z,101357.22
2022-08-12T18:54:35.685Z,101349.97
2022-08-12T18:57:19.712Z,101361.44
2022-08-12T19:00:01.450Z,101362.00
2022-08-12T19:02:33.868Z,101358.94
2022-08-12T19:05:10.635Z,101357.06
2022-08-12T19:07:58.124Z,101364.34
2022-08-12T19:10:30.798Z,101361.59
2022-08-12T19:13:21.279Z,101360.94
2022-08-12T19:15:54.418Z,101370.22
2022-08-12T19:18:24.413Z,101366.34
2022-08-12T19:20:53.600Z,101366.09
2022-08-12T19:23:22.219Z,101367.34
2022-08-12T19:26:00.755Z,101365.53
2022-08-12T19:28:35.566Z,101373.59
2022-08-12T19:31:44.926Z,101359.50
2022-08-12T19:37:27.519Z,101366.31
2022-08-12T19:40:30.961Z,101358.00
2022-08-12T19:43:00.996Z,101360.59
2022-08-12T19:45:43.854Z,101358.06
2022-08-12T19:48:18.088Z,101358.53
2022-08-12T19:50:49.909Z,101351.22
2022-08-12T19:53:20.586Z,101352.97
2022-08-12T19:55:52.823Z,101358.47
2022-08-12T19:58:21.832Z,101362.09
2022-08-12T20:00:53.426Z,101360.19
2022-08-12T20:03:40.231Z,101353.00
2022-08-12T20:06:16.078Z,101355.75
2022-08-12T20:08:56.773Z,101360.25
2022-08-12T20:12:12.607Z,101364.59
2022-08-12T20:14:18.040Z,101370.44
2022-08-12T20:16:52.505Z,101377.69
2022-08-12T20:19:52.788Z,101375.53
2022-08-12T20:22:23.371Z,101379.69
2022-08-12T20:24:55.086Z,101387.19
2022-08-12T20:27:29.627Z,101379.28
2022-08-12T20:30:15.097Z,101376.91
2022-08-12T20:32:53.704Z,101373.00
2022-08-12T20:35:24.318Z,101380.09
2022-08-12T20:38:04.958Z,101372.41
2022-08-12T20:40:38.212Z,101379.94
2022-08-12T20:43:06.878Z,101375.66
2022-08-12T20:45:51.230Z,101373.50
2022-08-12T20:48:25.270Z,101369.19
2022-08-12T20:50:53.871Z,101370.38
2022-08-12T20:53:28.890Z,101372.84
2022-08-12T20:56:21.987Z,101366.91
2022-08-12T20:58:59.895Z,101374.78
2022-08-12T21:01:46.060Z,101376.97
2022-08-12T21:04:32.754Z,101371.69
2022-08-12T21:07:04.590Z,101375.03
2022-08-12T21:09:41.480Z,101381.34
2022-08-12T21:12:28.509Z,101380.94
2022-08-12T21:15:24.048Z,101378.28
2022-08-12T21:18:01.100Z,101376.59
2022-08-12T21:20:39.753Z,101384.78
2022-08-12T21:23:08.928Z,101383.66
2022-08-12T21:25:45.129Z,101382.66
2022-08-12T21:28:15.576Z,101379.56
2022-08-12T21:31:11.504Z,101381.13
2022-08-12T21:33:45.620Z,101379.44
2022-08-12T21:36:32.236Z,101382.19
2022-08-12T21:39:20.478Z,101376.06
2022-08-12T21:41:51.476Z,101381.41
2022-08-12T21:44:24.716Z,101381.97
2022-08-12T21:47:21.737Z,101385.19
2022-08-12T21:50:02.283Z,101380.97
2022-08-12T21:52:34.857Z,101384.47
2022-08-12T21:55:08.453Z,101377.81
2022-08-12T21:57:50.502Z,101384.69
2022-08-12T22:00:32.454Z,101372.09
2022-08-12T22:03:30.358Z,101383.50
2022-08-12T22:06:31.180Z,101378.81
2022-08-12T22:09:15.207Z,101394.41
2022-08-12T22:11:43.857Z,101392.09
2022-08-12T22:14:22.015Z,101389.59
2022-08-12T22:16:54.451Z,101389.34
2022-08-12T22:19:23.043Z,101391.91
2022-08-12T22:21:53.297Z,101394.22
2022-08-12T22:24:26.859Z,101388.31
2022-08-12T22:26:57.448Z,101393.09
2022-08-12T22:29:43.577Z,101394.78
2022-08-12T22:32:13.276Z,101392.94
2022-08-12T22:34:44.519Z,101400.25
2022-08-12T22:37:19.610Z,101398.72
2022-08-12T22:39:49.106Z,101404.53
2022-08-12T22:42:35.142Z,101406.69
2022-08-12T22:45:23.297Z,101393.63
2022-08-12T22:47:56.110Z,101401.88
2022-08-12T22:50:28.926Z,101402.00
2022-08-12T22:53:15.165Z,101395.44
2022-08-12T22:55:59.576Z,101396.00
2022-08-12T22:58:33.565Z,101394.44
2022-08-12T23:01:21.318Z,101393.50
2022-08-12T23:04:02.863Z,101385.56
2022-08-12T23:06:30.845Z,101395.25
2022-08-12T23:08:59.408Z,101391.00
2022-08-12T23:11:36.285Z,101392.47
2022-08-12T23:14:08.774Z,101392.72
2022-08-12T23:16:39.458Z,101390.28
2022-08-12T23:19:18.218Z,101390.75
2022-08-12T23:22:05.926Z,101385.06
2022-08-12T23:24:55.905Z,101388.97
2022-08-12T23:27:44.205Z,101381.06
2022-08-12T23:30:24.512Z,101384.56
2022-08-12T23:32:54.122Z,101390.94
2022-08-12T23:35:23.579Z,101385.47
2022-08-12T23:38:11.833Z,101390.50
2022-08-12T23:40:59.589Z,101387.78
2022-08-12T23:43:39.750Z,101386.28
2022-08-12T23:46:10.182Z,101385.59
2022-08-12T23:48:38.397Z,101378.22
2022-08-12T23:51:22.535Z,101382.47
2022-08-12T23:53:56.320Z,101384.28
2022-08-12T23:56:29.156Z,101386.94
2022-08-12T23:58:58.714Z,101387.97
